EW2825 Weather Reports


Display with metric or nautical units.
time (UTC)temp
F
wind
direction
speed
MPH
gust
MPH
rain 1hr
in
rain 24hr
in
rain mn
in
humidity
%
barometer
mb
20190720030025 76 315 0.0 0.0 0.00 0.00 0.00 87 1004.3
20190720024548 77 315 0.0 0.0 0.00 0.00 0.00 84 1004.2
20190720023041 79 314 0.0 0.0 0.00 0.00 0.00 80 1003.9
20190720021637 79 314 0.0 0.0 0.00 0.00 0.00 80 1004.0
20190720020023 79 315 0.0 0.0 0.00 0.00 0.00 79 1003.9
20190720014519 79 315 0.0 0.0 0.00 0.00 0.00 78 1004.0
20190720013025 79 315 0.0 0.0 0.00 0.00 0.00 79 1004.0
20190720011514 79 315 0.0 0.0 0.00 0.00 0.00 78 1003.9
20190720010037 80 315 0.0 0.0 0.00 0.00 0.00 78 1003.9
20190720004522 80 314 0.0 0.0 0.00 0.00 0.00 78 1003.8
20190720003024 80 314 0.0 0.0 0.00 0.00 0.00 77 1003.4
20190720001516 81 311 0.0 0.0 0.00 0.00 0.00 77 1003.5
20190720000012 81 306 0.0 0.0 0.00 0.00 0.00 76 1003.5
20190719234545 82 302 0.0 0.0 0.00 0.00 0.00 75 1003.5
20190719233037 82 302 0.0 0.0 0.00 0.00 0.00 74 1003.4
20190719231532 82 315 0.0 0.0 0.00 0.00 0.00 74 1003.5
20190719230012 83 318 0.0 0.0 0.00 0.00 0.00 74 1003.5
20190719224517 83 319 0.0 0.0 0.00 0.00 0.00 73 1003.5
20190719223019 83 320 0.0 0.0 0.00 0.00 0.00 75 1003.7
20190719221533 83 320 0.0 0.0 0.00 0.00 0.00 75 1003.5
20190719220010 83 320 0.0 0.0 0.00 0.00 0.00 75 1003.6
20190719214505 83 320 0.0 0.0 0.00 0.00 0.00 73 1003.6
20190719213005 84 320 0.0 0.0 0.00 0.00 0.00 72 1003.6
20190719211512 85 325 0.0 0.0 0.00 0.00 0.00 70 1003.5
20190719210003 85 360 0.0 0.0 0.00 0.00 0.00 73 1003.5
20190719204649 84 321 1.0 0.0 0.00 0.00 0.00 72 1003.5
20190719203132 82 307 0.0 0.0 0.00 0.00 0.00 77 1003.5
20190719201750 83 307 0.0 0.0 0.00 0.00 0.00 74 1003.9
20190719200219 82 306 0.0 0.0 0.00 0.00 0.00 74 1004.0
20190719194820 82 306 0.0 0.0 0.00 0.00 0.00 75 1004.0
20190719193150 82 306 0.0 0.0 0.00 0.00 0.00 75 1004.1
20190719191626 81 65 0.0 0.0 0.00 0.00 0.00 77 1004.3
20190719190143 81 206 0.0 0.0 0.00 0.00 0.00 76 1004.4
20190719184635 82 190 0.0 0.0 0.00 0.00 0.00 78 1004.0
20190719183142 83 190 0.0 0.0 0.00 0.00 0.00 73 1004.1
20190719181628 84 194 0.0 0.0 0.00 0.00 0.00 74 1004.0
20190719180204 83 59 0.0 0.0 0.00 0.00 0.00 70 1004.1
20190719174716 83 153 0.0 0.0 0.00 0.00 0.00 71 1004.5
20190719173132 84 107 0.0 0.0 0.00 0.00 0.00 69 1004.5
20190719171636 83 49 0.0 0.0 0.00 0.00 0.00 70 1004.5
20190719170111 83 167 0.0 0.0 0.00 0.00 0.00 70 1004.9
20190719164616 82 169 0.0 0.0 0.00 0.00 0.00 73 1005.0
20190719163120 81 202 0.0 0.0 0.00 0.00 0.00 73 1005.2
20190719161636 79 194 1.0 0.0 0.00 0.00 0.00 76 1005.5
20190719160041 78 146 0.0 0.0 0.00 0.00 0.00 80 1005.7
20190719154546 76 153 0.0 0.0 0.00 0.00 0.00 82 1005.7
20190719153048 76 165 0.0 0.0 0.00 0.00 0.00 81 1006.0
20190719151615 77 186 0.0 0.0 0.00 0.00 0.00 77 1006.0
20190719150220 77 151 1.0 0.0 0.00 0.00 0.00 75 1006.0
20190719144620 76 155 1.0 0.0 0.00 0.00 0.00 77 1006.0
20190719143030 75 142 1.0 0.0 0.00 0.00 0.00 78 1006.3
20190719141531 74 140 1.0 0.0 0.00 0.00 0.00 81 1006.4
20190719140016 72 165 0.0 0.0 0.00 0.00 0.00 84 1006.7
20190719134514 69 167 0.0 0.0 0.00 0.00 0.00 91 1007.0
20190719133037 68 167 0.0 0.0 0.00 0.00 0.00 92 1007.1
20190719131503 67 167 0.0 0.0 0.00 0.00 0.00 92 1007.4
20190719130148 65 175 0.0 0.0 0.00 0.00 0.00 93 1007.6
20190719124655 65 175 0.0 0.0 0.00 0.00 0.00 94 1008.1
20190719123216 64 175 0.0 0.0 0.00 0.00 0.00 95 1008.2
20190719121608 63 175 0.0 0.0 0.00 0.00 0.00 96 1008.1
20190719120134 62 175 0.0 0.0 0.00 0.00 0.00 97 1008.2
20190719114646 62 175 0.0 0.0 0.00 0.00 0.00 98 1008.5
20190719113203 61 175 0.0 0.0 0.00 0.00 0.00 99 1008.7
20190719111644 60 175 0.0 0.0 0.00 0.00 0.00 99 1008.8
20190719110129 60 175 0.0 0.0 0.00 0.00 0.00 99 1008.8
20190719104626 59 175 0.0 0.0 0.00 0.00 0.00 99 1008.7
20190719103206 59 175 0.0 0.0 0.00 0.00 0.00 99 1009.1
20190719101838 59 175 0.0 0.0 0.00 0.00 0.00 99 1008.9
20190719100140 58 175 0.0 0.0 0.00 0.00 0.00 99 1009.1
20190719094617 58 175 0.0 0.0 0.00 0.00 0.00 99 1009.0
20190719093105 58 175 0.0 0.0 0.00 0.00 0.00 98 1009.2
20190719091611 59 175 0.0 0.0 0.00 0.00 0.00 98 1009.2
20190719090153 59 175 0.0 0.0 0.00 0.00 0.00 99 1009.3
20190719084613 59 175 0.0 0.0 0.00 0.00 0.00 99 1009.6
20190719083137 59 175 0.0 0.0 0.00 0.00 0.00 98 1009.5
20190719081622 59 175 0.0 0.0 0.00 0.00 0.00 98 1009.2
20190719080108 59 175 0.0 0.0 0.00 0.00 0.00 98 1009.6
20190719074546 59 175 0.0 0.0 0.00 0.00 0.00 98 1009.7
20190719073133 59 175 0.0 0.0 0.00 0.00 0.00 98 1009.2
20190719071627 59 175 0.0 0.0 0.00 0.00 0.00 98 1009.7
20190719070146 59 175 0.0 0.0 0.00 0.00 0.00 98 1009.7
20190719064603 60 175 0.0 0.0 0.00 0.00 0.00 98 1009.6
20190719063058 60 175 0.0 0.0 0.00 0.00 0.00 97 1009.6
20190719061602 60 175 0.0 0.0 0.00 0.00 0.00 97 1009.9
20190719060107 61 175 0.0 0.0 0.00 0.00 0.00 96 1010.1
20190719054536 61 175 0.0 0.0 0.00 0.00 0.00 96 1010.1
20190719053032 61 175 0.0 0.0 0.00 0.00 0.00 96 1010.1
20190719051542 62 175 0.0 0.0 0.00 0.00 0.00 96 1010.4
20190719050040 62 175 0.0 0.0 0.00 0.00 0.00 95 1010.4
20190719044541 62 175 0.0 0.0 0.00 0.00 0.00 95 1010.6
20190719043037 63 175 0.0 0.0 0.00 0.00 0.00 94 1010.6
20190719041523 63 175 0.0 0.0 0.00 0.00 0.00 94 1010.6
20190719040023 63 175 0.0 0.0 0.00 0.00 0.00 93 1010.3
20190719034537 63 175 0.0 0.0 0.00 0.00 0.00 92 1010.4
20190719033020 64 175 0.0 0.0 0.00 0.00 0.00 92 1010.6
20190719031545 64 175 0.0 0.0 0.00 0.00 0.00 90 1010.6